Time;durP1;ratioP1;P1;durP2;ratioP2;P2;SDS_P1;SDS_P2;PMS_P1;PMS_P2;Temp;Humidity;BMP_temperature;BMP_pressure;BME280_temperature;BME280_humidity;BME280_pressure;Samples;Min_cycle;Max_cycle;Signal;HPM_P1;HPM_P2
2022/08/14 00:01:35;;;;;;;12.78;8.25;;;;;;;21.55;100.00;99305.98;1762161;81;21892;-76
2022/08/14 00:04:02;;;;;;;16.67;8.50;;;;;;;21.56;100.00;99307.61;1780652;79;21041;-74
2022/08/14 00:06:28;;;;;;;14.75;8.45;;;;;;;21.55;100.00;99302.41;1740973;82;21112;-75
2022/08/14 00:08:56;;;;;;;13.08;8.43;;;;;;;21.59;100.00;99293.05;1779608;80;20990;-75
2022/08/14 00:11:23;;;;;;;10.82;8.15;;;;;;;21.64;100.00;99295.56;1711776;84;21125;-75
2022/08/14 00:13:49;;;;;;;13.55;8.03;;;;;;;21.63;100.00;99289.80;1764797;80;21014;-75
2022/08/14 00:16:16;;;;;;;12.37;8.20;;;;;;;21.67;100.00;99292.08;1750072;81;21127;-74
2022/08/14 00:18:42;;;;;;;16.37;8.05;;;;;;;21.69;100.00;99294.48;1780594;80;20975;-75
2022/08/14 00:21:08;;;;;;;14.68;8.78;;;;;;;21.67;100.00;99292.08;1784867;80;21018;-74
2022/08/14 00:23:35;;;;;;;12.05;7.95;;;;;;;21.66;100.00;99293.23;1761104;80;20999;-74
2022/08/14 00:26:02;;;;;;;14.07;8.55;;;;;;;21.68;100.00;99286.75;1782191;79;21030;-76
2022/08/14 00:28:28;;;;;;;11.40;7.90;;;;;;;21.75;100.00;99291.70;1751750;81;21543;-74
2022/08/14 00:30:56;;;;;;;14.05;7.95;;;;;;;21.72;100.00;99289.03;1768951;80;21541;-74
2022/08/14 00:33:26;;;;;;;12.85;8.05;;;;;;;21.72;100.00;99290.41;1725262;82;21076;-74
2022/08/14 00:35:52;;;;;;;14.25;7.72;;;;;;;21.75;100.00;99284.77;1734956;81;21092;-73
2022/08/14 00:38:19;;;;;;;10.88;8.48;;;;;;;21.76;100.00;99289.94;1789914;78;21029;-74
2022/08/14 00:40:45;;;;;;;11.05;8.13;;;;;;;21.74;100.00;99290.08;1801317;79;21009;-74
2022/08/14 00:43:12;;;;;;;20.15;8.13;;;;;;;21.76;100.00;99283.00;1813805;79;21060;-74
2022/08/14 00:45:39;;;;;;;9.95;7.50;;;;;;;21.81;100.00;99283.33;1822599;77;21620;-73
2022/08/14 00:48:06;;;;;;;10.55;7.92;;;;;;;21.79;100.00;99283.67;1808333;78;21009;-71
2022/08/14 00:50:34;;;;;;;12.25;7.53;;;;;;;21.79;100.00;99284.25;1806710;79;21551;-72
2022/08/14 00:53:02;;;;;;;14.40;8.03;;;;;;;21.83;100.00;99275.45;1798063;77;21065;-74
2022/08/14 00:55:29;;;;;;;14.15;8.20;;;;;;;21.86;100.00;99277.50;1792702;77;21053;-74
2022/08/14 01:00:43;;;;;;;11.20;7.73;;;;;;;21.83;100.00;99269.34;1797653;79;21539;-73
2022/08/14 01:03:10;;;;;;;11.53;8.53;;;;;;;21.84;100.00;99272.34;1797212;77;20965;-74
2022/08/14 01:05:37;;;;;;;12.43;7.67;;;;;;;21.81;100.00;99274.44;1805740;78;21570;-75
2022/08/14 01:08:05;;;;;;;10.25;7.67;;;;;;;21.76;100.00;99273.89;1813857;79;21013;-74
2022/08/14 01:10:49;;;;;;;12.50;7.92;;;;;;;21.76;100.00;99269.73;1820414;78;21009;-75
2022/08/14 01:13:24;;;;;;;11.05;7.30;;;;;;;21.76;100.00;99272.50;1821207;77;21020;-74
2022/08/14 01:15:57;;;;;;;14.33;7.28;;;;;;;21.72;100.00;99272.98;1803969;77;21092;-73
2022/08/14 01:21:16;;;;;;;12.25;7.40;;;;;;;21.72;100.00;99273.80;1791611;79;21052;-72
2022/08/14 01:23:49;;;;;;;12.68;7.83;;;;;;;21.69;100.00;99278.67;1814645;77;21051;-72
2022/08/14 01:26:19;;;;;;;9.98;7.62;;;;;;;21.65;100.00;99280.53;1808560;79;21095;-73
2022/08/14 01:28:47;;;;;;;9.60;7.72;;;;;;;21.63;100.00;99282.88;1799087;79;21099;-76
2022/08/14 01:31:16;;;;;;;9.70;7.20;;;;;;;21.64;100.00;99289.22;1800181;79;21068;-71
2022/08/14 01:33:46;;;;;;;13.45;7.90;;;;;;;21.60;100.00;99280.81;1810760;77;21084;-72
2022/08/14 01:36:15;;;;;;;11.03;7.50;;;;;;;21.57;100.00;99282.92;1817046;77;21100;-75
2022/08/14 01:38:44;;;;;;;11.80;7.15;;;;;;;21.59;100.00;99286.70;1824482;77;21576;-71
2022/08/14 01:41:13;;;;;;;11.12;7.37;;;;;;;21.62;100.00;99284.59;1821449;79;21022;-73
2022/08/14 01:43:50;;;;;;;12.37;7.40;;;;;;;21.61;100.00;99274.09;1826601;77;20986;-73
2022/08/14 01:46:23;;;;;;;11.43;7.45;;;;;;;21.59;100.00;99279.77;1811468;77;21006;-73
2022/08/14 01:48:50;;;;;;;8.70;7.12;;;;;;;21.59;100.00;99279.77;1827591;77;20991;-74
2022/08/14 01:51:21;;;;;;;9.83;7.03;;;;;;;21.62;100.00;99277.09;1821053;77;20983;-72
2022/08/14 01:53:55;;;;;;;10.50;7.83;;;;;;;21.62;100.00;99284.02;1832216;77;20999;-72
2022/08/14 01:56:39;;;;;;;10.80;7.80;;;;;;;21.60;100.00;99282.78;1842229;77;21034;-71
2022/08/14 01:59:10;;;;;;;14.23;7.80;;;;;;;21.59;100.00;99275.63;1827230;77;21049;-72
2022/08/14 02:01:37;;;;;;;16.73;7.92;;;;;;;21.62;100.00;99279.06;1805289;77;21539;-73
2022/08/14 02:04:04;;;;;;;11.45;7.92;;;;;;;21.56;100.00;99284.07;1789304;80;21014;-72
2022/08/14 02:06:30;;;;;;;17.40;7.22;;;;;;;21.50;100.00;99274.42;1811041;77;21006;-72
2022/08/14 02:08:57;;;;;;;13.72;7.60;;;;;;;21.52;100.00;99274.86;1813457;77;21037;-72
2022/08/14 02:11:24;;;;;;;8.80;7.00;;;;;;;21.55;100.00;99278.88;1825312;77;21085;-72
2022/08/14 02:14:00;;;;;;;13.15;7.30;;;;;;;21.50;100.00;99274.42;1819905;77;21558;-72
2022/08/14 02:16:28;;;;;;;11.75;7.45;;;;;;;21.45;100.00;99272.47;1816102;77;21042;-72
2022/08/14 02:18:57;;;;;;;9.48;7.35;;;;;;;21.45;100.00;99269.70;1789794;77;20989;-71
2022/08/14 02:21:24;;;;;;;9.48;7.53;;;;;;;21.43;100.00;99268.70;1817593;77;21011;-73
2022/08/14 02:23:53;;;;;;;10.28;7.03;;;;;;;21.37;100.00;99263.74;1822727;77;21516;-73
2022/08/14 02:26:24;;;;;;;12.40;7.90;;;;;;;21.35;100.00;99259.96;1791527;79;21028;-73
2022/08/14 02:28:56;;;;;;;13.85;7.40;;;;;;;21.38;100.00;99269.52;1823366;77;21022;-74
2022/08/14 02:31:22;;;;;;;11.45;8.15;;;;;;;21.36;100.00;99269.08;1834638;77;21034;-72
2022/08/14 02:33:49;;;;;;;12.73;8.03;;;;;;;21.31;100.00;99265.98;1796873;77;20994;-73
2022/08/14 02:36:15;;;;;;;12.60;7.50;;;;;;;21.29;100.00;99279.38;1805929;77;21061;-72
2022/08/14 02:38:42;;;;;;;12.80;7.90;;;;;;;21.28;100.00;99273.61;1850603;77;21019;-73
2022/08/14 02:41:11;;;;;;;14.00;7.97;;;;;;;21.24;100.00;99276.85;1820666;77;21066;-71
2022/08/14 02:43:39;;;;;;;9.35;7.50;;;;;;;21.18;100.00;99286.00;1787448;79;21026;-73
2022/08/14 02:46:08;;;;;;;9.65;7.47;;;;;;;21.14;100.00;99284.28;1813506;77;21078;-73
2022/08/14 02:48:40;;;;;;;11.33;7.83;;;;;;;21.15;100.00;99284.52;1814975;77;21038;-72
2022/08/14 02:52:29;;;;;;;10.25;7.70;;;;;;;21.13;100.00;99284.86;1813993;78;22892;-77
2022/08/14 02:54:55;;;;;;;14.68;8.25;;;;;;;21.05;100.00;99283.00;1752950;80;21061;-77
2022/08/14 02:57:23;;;;;;;9.15;7.97;;;;;;;21.09;100.00;99283.11;1750160;81;21563;-74
2022/08/14 02:59:50;;;;;;;11.78;7.85;;;;;;;21.08;100.00;99283.69;1756303;80;21082;-76
2022/08/14 03:02:16;;;;;;;11.85;8.00;;;;;;;21.04;100.00;99285.57;1750341;82;21050;-81
2022/08/14 03:04:43;;;;;;;12.65;7.53;;;;;;;21.05;100.00;99288.54;1732482;81;21044;-75
2022/08/14 03:07:09;;;;;;;10.75;8.15;;;;;;;21.08;100.00;99282.30;1732562;81;21018;-78
2022/08/14 03:09:36;;;;;;;14.23;8.18;;;;;;;21.05;100.00;99278.05;1743308;80;21070;-78
2022/08/14 03:12:04;;;;;;;10.48;7.45;;;;;;;21.03;100.00;99277.03;1691555;84;21034;-79
2022/08/14 03:14:34;;;;;;;13.90;7.62;;;;;;;21.06;100.00;99272.75;1690110;83;21069;-72
2022/08/14 03:16:59;;;;;;;14.00;7.80;;;;;;;21.05;100.00;99276.09;1673648;84;21059;-74
2022/08/14 03:19:26;;;;;;;11.78;7.35;;;;;;;21.04;100.00;99280.61;1683428;84;21105;-75
2022/08/14 03:21:53;;;;;;;12.58;7.20;;;;;;;21.06;100.00;99276.90;1691366;84;21062;-78
2022/08/14 03:24:21;;;;;;;9.90;7.22;;;;;;;21.10;100.00;99287.49;1702425;83;21556;-73
2022/08/14 03:26:48;;;;;;;10.45;7.05;;;;;;;21.09;100.00;99280.34;1689270;83;21023;-78
2022/08/14 03:29:19;;;;;;;9.95;7.72;;;;;;;21.08;100.00;99283.69;1697647;84;21074;-73
2022/08/14 03:31:44;;;;;;;14.53;7.83;;;;;;;21.10;100.00;99282.80;1702433;83;21030;-75
2022/08/14 03:34:11;;;;;;;12.25;7.10;;;;;;;21.17;100.00;99278.04;1711116;82;21573;-77
2022/08/14 03:36:39;;;;;;;14.18;8.28;;;;;;;21.18;100.00;99272.73;1712501;83;21082;-75
2022/08/14 03:39:07;;;;;;;10.80;7.37;;;;;;;21.19;100.00;99279.29;1707912;83;21019;-75
2022/08/14 03:41:34;;;;;;;11.15;6.83;;;;;;;21.23;100.00;99276.63;1692438;84;21049;-72
2022/08/14 03:44:02;;;;;;;12.45;7.15;;;;;;;21.29;100.00;99275.23;1680939;84;21150;-76
2022/08/14 03:46:34;;;;;;;15.53;7.08;;;;;;;21.30;100.00;99276.81;1685618;84;21646;-74
2022/08/14 03:49:04;;;;;;;9.13;7.05;;;;;;;21.32;100.00;99280.05;1699874;83;21475;-78
2022/08/14 03:51:31;;;;;;;11.40;7.25;;;;;;;21.39;100.00;99283.59;1681244;84;21087;-81
2022/08/14 03:54:00;;;;;;;9.38;6.85;;;;;;;21.46;100.00;99274.09;1725570;82;21099;-77
2022/08/14 03:56:26;;;;;;;13.13;7.20;;;;;;;21.47;100.00;99281.25;1710622;82;21086;-79
2022/08/14 03:58:55;;;;;;;16.20;7.50;;;;;;;21.46;100.00;99282.40;1669929;85;21094;-74
2022/08/14 04:01:23;;;;;;;9.50;6.70;;;;;;;21.50;100.00;99284.69;1685731;85;21911;-74
2022/08/14 04:03:52;;;;;;;10.53;6.65;;;;;;;21.53;100.00;99285.36;1734305;82;21604;-75
2022/08/14 04:06:21;;;;;;;12.93;7.28;;;;;;;21.53;100.00;99283.97;1723480;82;21078;-78
2022/08/14 04:08:52;;;;;;;14.18;7.28;;;;;;;21.52;100.00;99279.02;1723117;82;21069;-75
2022/08/14 04:11:19;;;;;;;9.00;6.60;;;;;;;21.56;100.00;99272.99;1727088;82;21023;-76
2022/08/14 04:13:47;;;;;;;10.43;7.03;;;;;;;21.62;100.00;99285.41;1706208;83;21629;-75
2022/08/14 04:16:19;;;;;;;7.92;6.95;;;;;;;21.63;100.00;99269.02;1723290;82;21012;-78
2022/08/14 04:18:49;;;;;;;10.68;7.15;;;;;;;21.66;100.00;99268.88;1725716;82;21103;-78
2022/08/14 04:21:16;;;;;;;7.33;6.47;;;;;;;21.71;100.00;99270.02;1723804;82;20999;-78
2022/08/14 04:23:43;;;;;;;11.30;7.53;;;;;;;21.76;100.00;99259.45;1712789;82;21038;-77
2022/08/14 04:26:11;;;;;;;11.73;7.42;;;;;;;21.76;100.00;99264.19;1718053;82;21030;-77
2022/08/14 04:28:39;;;;;;;14.65;6.78;;;;;;;21.73;100.00;99257.98;1723747;82;21565;-79
2022/08/14 04:31:07;;;;;;;9.23;7.28;;;;;;;21.74;100.00;99258.22;1685914;84;21051;-75
2022/08/14 04:33:35;;;;;;;10.98;6.97;;;;;;;21.74;100.00;99260.98;1685347;85;21086;-77
2022/08/14 04:36:01;;;;;;;10.38;6.42;;;;;;;21.69;100.00;99259.85;1728828;82;21082;-78
2022/08/14 04:43:34;;;;;;;10.48;7.12;;;;;;;21.71;100.00;99256.16;1735986;82;21429;-74
2022/08/14 04:44:01;;;;;;;10.13;6.90;;;;;;;21.69;100.00;99260.66;1730015;82;21127;-76
2022/08/14 04:46:28;;;;;;;9.95;6.62;;;;;;;21.63;100.00;99262.09;1735442;82;21711;-77
2022/08/14 04:48:56;;;;;;;9.00;6.58;;;;;;;21.59;100.00;99263.97;1726346;82;21016;-76
2022/08/14 04:51:26;;;;;;;9.05;6.28;;;;;;;21.62;100.00;99267.41;1726677;81;21556;-78
2022/08/14 04:53:55;;;;;;;7.67;6.25;;;;;;;21.62;100.00;99266.02;1745173;80;21082;-78
2022/08/14 04:56:23;;;;;;;11.80;7.03;;;;;;;21.58;100.00;99262.34;1738556;81;21035;-76
2022/08/14 04:58:56;;;;;;;9.45;6.62;;;;;;;21.55;100.00;99266.41;1731147;81;21597;-77
2022/08/14 05:01:24;;;;;;;12.10;6.85;;;;;;;21.58;100.00;99274.00;1737842;81;21070;-74
2022/08/14 05:03:51;;;;;;;10.70;6.72;;;;;;;21.57;100.00;99271.84;1692204;83;21057;-75
2022/08/14 05:06:18;;;;;;;12.98;7.45;;;;;;;21.54;100.00;99276.67;1623971;85;21104;-78
2022/08/14 05:08:44;;;;;;;12.90;6.90;;;;;;;21.53;100.00;99283.97;1667144;85;21499;-74
2022/08/14 05:11:11;;;;;;;9.58;7.30;;;;;;;21.56;100.00;99279.10;1661955;85;21633;-75
2022/08/14 05:13:38;;;;;;;9.33;6.80;;;;;;;21.57;100.00;99277.95;1666417;85;21102;-78
2022/08/14 05:16:06;;;;;;;8.38;6.58;;;;;;;21.57;100.00;99278.77;1700132;83;21061;-77
2022/08/14 05:18:36;;;;;;;10.23;7.25;;;;;;;21.60;100.00;99283.59;1667314;86;21109;-73
2022/08/14 05:21:06;;;;;;;12.73;7.00;;;;;;;21.65;100.00;99276.95;1679800;84;21019;-77
2022/08/14 05:23:37;;;;;;;10.68;6.80;;;;;;;21.66;100.00;99275.80;1689686;84;21076;-77
2022/08/14 05:26:11;;;;;;;11.97;6.85;;;;;;;21.68;100.00;99279.05;1686237;84;21036;-76
2022/08/14 05:28:33;;;;;;;12.47;7.03;;;;;;;21.73;100.00;99280.14;1669372;84;21078;-77
2022/08/14 05:31:05;;;;;;;9.43;6.87;;;;;;;21.76;100.00;99278.85;1695670;84;21542;-74
2022/08/14 05:33:33;;;;;;;15.08;7.33;;;;;;;21.79;100.00;99273.17;1680934;84;21075;-80
2022/08/14 05:36:03;;;;;;;10.00;7.20;;;;;;;21.86;100.00;99271.19;1672144;85;21044;-72
2022/08/14 05:38:32;;;;;;;11.73;6.60;;;;;;;21.96;100.00;99275.64;1695616;83;21566;-73
2022/08/14 05:41:01;;;;;;;8.00;6.72;;;;;;;22.00;100.00;99275.13;1691694;83;20995;-72
2022/08/14 05:43:29;;;;;;;10.98;7.05;;;;;;;22.05;100.00;99270.70;1695267;83;21077;-72
2022/08/14 05:46:00;;;;;;;12.15;6.87;;;;;;;22.16;100.00;99278.70;1695841;84;21394;-77
2022/08/14 05:48:27;;;;;;;9.18;6.87;;;;;;;22.30;100.00;99280.42;1695886;83;21069;-77
2022/08/14 05:50:54;;;;;;;9.43;7.20;;;;;;;22.38;100.00;99277.24;1695345;84;21006;-76
2022/08/14 05:53:21;;;;;;;9.10;6.75;;;;;;;22.46;100.00;99272.66;1686131;84;21097;-72
2022/08/14 05:55:48;;;;;;;10.70;6.92;;;;;;;22.53;100.00;99278.38;1683771;84;21027;-74
2022/08/14 05:58:15;;;;;;;11.48;6.85;;;;;;;22.57;100.00;99262.59;1685689;84;21074;-75
2022/08/14 06:00:43;;;;;;;8.38;6.72;;;;;;;22.71;100.00;99267.09;1659282;85;21031;-74
2022/08/14 06:03:13;;;;;;;8.73;7.22;;;;;;;22.77;100.00;99271.21;1685203;85;21118;-77
2022/08/14 06:05:40;;;;;;;11.45;7.37;;;;;;;22.74;100.00;99269.94;1685440;85;20995;-76
2022/08/14 06:08:24;;;;;;;8.20;6.53;;;;;;;22.74;100.00;99271.33;1705326;82;21087;-79
2022/08/14 06:10:53;;;;;;;10.30;7.10;;;;;;;22.80;100.00;99262.96;1724453;82;21011;-76
2022/08/14 06:13:21;;;;;;;11.00;7.08;;;;;;;22.84;100.00;99266.39;1719080;82;21557;-74
2022/08/14 06:15:48;;;;;;;11.85;6.70;;;;;;;22.84;100.00;99263.61;1688952;84;21018;-71
2022/08/14 06:18:15;;;;;;;9.20;7.20;;;;;;;22.88;100.00;99261.72;1720943;82;21559;-77
2022/08/14 06:20:42;;;;;;;9.13;6.33;;;;;;;22.94;100.00;99261.64;1660545;85;21460;-72
2022/08/14 06:23:08;;;;;;;11.22;6.67;;;;;;;22.91;100.00;99251.27;1720540;82;21565;-77
2022/08/14 06:25:35;;;;;;;9.08;6.85;;;;;;;22.99;100.00;99259.97;1742906;82;21007;-78
2022/08/14 06:28:02;;;;;;;10.03;7.12;;;;;;;22.97;100.00;99258.94;1728215;82;21038;-78
2022/08/14 06:30:32;;;;;;;9.08;7.50;;;;;;;22.98;100.00;99261.94;1738924;82;20982;-74
2022/08/14 06:32:58;;;;;;;11.33;7.67;;;;;;;23.00;100.00;99257.40;1727058;82;21051;-74
2022/08/14 06:35:25;;;;;;;11.55;7.00;;;;;;;23.04;100.00;99261.05;1730891;82;21404;-76
2022/08/14 06:37:57;;;;;;;11.38;7.35;;;;;;;23.08;100.00;99263.32;1728637;82;21469;-76
2022/08/14 06:40:33;;;;;;;10.43;7.60;;;;;;;23.05;100.00;99259.89;1731102;82;21002;-79
2022/08/14 06:43:03;;;;;;;9.50;7.95;;;;;;;23.01;100.00;99269.53;1729499;82;21058;-77
2022/08/14 06:45:31;;;;;;;11.08;6.78;;;;;;;23.03;100.00;99263.59;1730839;82;21213;-78
2022/08/14 06:47:59;;;;;;;11.55;7.40;;;;;;;23.22;100.00;99258.86;1706847;82;21011;-78
2022/08/14 06:50:26;;;;;;;11.00;7.30;;;;;;;23.22;100.00;99258.86;1730272;82;20997;-82
2022/08/14 06:52:53;;;;;;;11.63;7.22;;;;;;;23.30;100.00;99257.83;1706098;82;21086;-77
2022/08/14 06:55:19;;;;;;;10.93;7.40;;;;;;;23.42;100.00;99261.03;1721934;82;21483;-78
2022/08/14 06:57:48;;;;;;;10.08;7.35;;;;;;;23.61;100.00;99262.98;1723052;83;21046;-77
2022/08/14 07:00:23;;;;;;;10.53;7.20;;;;;;;23.74;100.00;99264.39;1725661;82;20966;-80
2022/08/14 07:08:25;;;;;;;9.53;7.12;;;;;;;24.24;100.00;99253.53;1716073;82;21114;-73
2022/08/14 07:10:54;;;;;;;9.75;6.90;;;;;;;24.46;100.00;99250.48;1706114;82;21021;-77
2022/08/14 07:13:21;;;;;;;10.10;6.67;;;;;;;24.62;100.00;99240.77;1711820;82;21046;-73
2022/08/14 07:15:49;;;;;;;9.23;6.95;;;;;;;24.73;100.00;99243.70;1691905;83;21472;-73
2022/08/14 07:18:20;;;;;;;12.50;7.85;;;;;;;24.77;100.00;99238.39;1689898;83;22190;-75
2022/08/14 07:20:47;;;;;;;8.73;6.92;;;;;;;24.72;100.00;99244.90;1674656;84;20951;-76
2022/08/14 07:23:13;;;;;;;10.75;7.60;;;;;;;24.66;100.00;99248.58;1666776;86;21126;-80
2022/08/14 07:25:42;;;;;;;9.98;7.08;;;;;;;24.60;100.00;99244.53;1660057;84;21043;-77
2022/08/14 07:28:24;;;;;;;8.23;6.83;;;;;;;24.61;100.00;99250.32;1672397;85;21070;-73
2022/08/14 07:30:56;;;;;;;11.55;7.58;;;;;;;24.61;100.00;99243.36;1723359;83;21013;-77
2022/08/14 07:33:21;;;;;;;10.28;7.65;;;;;;;24.47;100.00;99246.53;1723015;83;21053;-79
2022/08/14 07:35:47;;;;;;;11.05;7.70;;;;;;;24.35;100.00;99250.91;1717256;82;20982;-77
2022/08/14 07:38:19;;;;;;;8.10;6.90;;;;;;;24.26;100.00;99256.77;1715472;83;21051;-72
2022/08/14 07:40:49;;;;;;;12.47;7.58;;;;;;;24.21;100.00;99257.06;1716020;82;21518;-70
2022/08/14 07:43:16;;;;;;;12.23;7.78;;;;;;;24.21;100.00;99262.63;1715314;83;21059;-73
2022/08/14 07:45:43;;;;;;;10.85;7.40;;;;;;;24.16;100.00;99260.96;1712831;82;21066;-72
2022/08/14 07:48:09;;;;;;;10.35;7.62;;;;;;;24.09;100.00;99266.38;1705342;82;21086;-74
2022/08/14 07:50:38;;;;;;;8.53;7.33;;;;;;;24.08;100.00;99268.16;1700887;84;21074;-73
2022/08/14 07:53:07;;;;;;;9.95;7.75;;;;;;;24.07;100.00;99274.30;1721447;82;21535;-75
2022/08/14 07:55:35;;;;;;;13.22;8.00;;;;;;;24.01;100.00;99273.61;1722475;82;21467;-73
2022/08/14 07:58:02;;;;;;;10.48;7.85;;;;;;;24.01;100.00;99272.22;1710587;82;21059;-74
2022/08/14 08:00:29;;;;;;;10.72;7.85;;;;;;;24.01;100.00;99275.80;1725461;82;21038;-73
2022/08/14 08:02:55;;;;;;;10.25;7.83;;;;;;;24.02;100.00;99270.44;1720964;82;21099;-76
2022/08/14 08:05:23;;;;;;;12.10;8.50;;;;;;;23.93;100.00;99272.67;1721186;82;20968;-75
2022/08/14 08:07:52;;;;;;;11.78;8.25;;;;;;;23.95;100.00;99275.88;1719129;82;21047;-74
2022/08/14 08:10:30;;;;;;;10.68;7.50;;;;;;;23.95;100.00;99275.88;1721384;83;21015;-73
2022/08/14 08:13:06;;;;;;;12.15;7.30;;;;;;;23.97;100.00;99270.77;1722992;82;21046;-70
2022/08/14 08:15:38;;;;;;;15.55;8.18;;;;;;;23.97;100.00;99272.73;1720496;82;21038;-72
2022/08/14 08:18:06;;;;;;;9.58;7.90;;;;;;;24.03;100.00;99276.80;1719884;82;21062;-74
2022/08/14 08:20:37;;;;;;;11.88;8.15;;;;;;;24.12;100.00;99271.22;1719938;82;21542;-76
2022/08/14 08:23:05;;;;;;;8.85;7.50;;;;;;;24.31;100.00;99282.05;1722488;82;21007;-74
2022/08/14 08:25:34;;;;;;;9.85;7.33;;;;;;;24.49;100.00;99274.77;1723782;82;21494;-75
2022/08/14 08:28:12;;;;;;;9.68;7.95;;;;;;;24.68;100.00;99270.48;1723101;83;21108;-73
2022/08/14 08:30:50;;;;;;;11.25;7.85;;;;;;;24.76;100.00;99269.41;1726332;82;21086;-75
2022/08/14 08:33:19;;;;;;;24.82;22.13;;;;;;;24.82;100.00;99269.28;1700903;83;21561;-73
2022/08/14 08:35:46;;;;;;;9.85;7.92;;;;;;;24.92;100.00;99263.66;1722538;82;20997;-75
2022/08/14 08:38:16;;;;;;;10.23;7.42;;;;;;;25.05;100.00;99265.82;1689933;82;21110;-73
2022/08/14 08:40:47;;;;;;;8.55;7.30;;;;;;;25.20;100.00;99259.83;1719210;82;20976;-73
2022/08/14 08:43:27;;;;;;;11.05;8.33;;;;;;;25.36;100.00;99266.59;1720817;82;21518;-76
2022/08/14 08:46:03;;;;;;;11.35;7.90;;;;;;;25.56;100.00;99254.89;1714180;82;21474;-74
2022/08/14 08:48:51;;;;;;;8.85;7.33;;;;;;;25.68;100.00;99245.45;1715422;82;21046;-75
2022/08/14 08:51:26;;;;;;;8.08;7.08;;;;;;;25.86;100.00;99245.61;1724057;82;21111;-72
2022/08/14 08:54:14;;;;;;;9.85;7.30;;;;;;;26.01;100.00;99240.34;1723561;81;21058;-76
2022/08/14 08:56:46;;;;;;;8.45;7.05;;;;;;;26.32;100.00;99232.05;1729375;81;21031;-77
2022/08/14 08:59:30;;;;;;;13.53;6.78;;;;;;;26.69;100.00;99224.27;1694518;84;21094;-71
2022/08/14 09:02:01;;;;;;;9.58;6.42;;;;;;;27.09;100.00;99215.70;1677332;85;21051;-75
2022/08/14 09:04:32;;;;;;;8.33;6.60;;;;;;;27.36;100.00;99225.13;1672969;85;21091;-72
2022/08/14 09:06:59;;;;;;;8.25;6.37;;;;;;;27.55;100.00;99212.23;1662970;84;21055;-70
2022/08/14 09:09:29;;;;;;;12.03;6.47;;;;;;;27.63;100.00;99218.81;1674943;86;21134;-73
2022/08/14 09:11:56;;;;;;;10.82;6.25;;;;;;;27.65;100.00;99217.03;1689249;83;21057;-73
2022/08/14 09:14:28;;;;;;;7.40;6.15;;;;;;;27.65;100.00;99216.44;1713350;82;21156;-72
2022/08/14 09:16:56;;;;;;;9.15;6.67;;;;;;;27.77;100.00;99220.05;1695974;83;21003;-71
2022/08/14 09:19:23;;;;;;;10.63;6.62;;;;;;;27.96;100.00;99221.02;1692264;84;21073;-71
2022/08/14 09:21:49;;;;;;;10.35;6.50;;;;;;;28.06;100.00;99216.82;1684341;84;21089;-75
2022/08/14 09:24:16;;;;;;;10.88;8.78;;;;;;;28.02;100.00;99214.63;1694521;83;21039;-74
2022/08/14 09:26:44;;;;;;;12.23;10.20;;;;;;;27.91;100.00;99206.86;1694405;84;21437;-73
2022/08/14 09:29:11;;;;;;;9.58;6.85;;;;;;;27.85;100.00;99204.25;1682607;84;21059;-72
2022/08/14 09:31:41;;;;;;;13.22;9.63;;;;;;;27.78;100.00;99208.44;1694991;83;21289;-74
2022/08/14 09:34:43;;;;;;;10.70;7.00;;;;;;;27.69;100.00;99202.45;1693971;83;21094;-74
2022/08/14 09:37:30;;;;;;;9.83;6.33;;;;;;;27.66;100.00;99193.47;1697159;83;21004;-73
2022/08/14 09:40:52;;;;;;;10.45;6.60;;;;;;;27.63;100.00;99197.08;1658235;84;21550;-72
2022/08/14 09:43:29;;;;;;;9.88;6.70;;;;;;;27.65;100.00;99202.45;1694738;83;21831;-72
2022/08/14 09:45:57;;;;;;;8.48;6.17;;;;;;;27.73;100.00;99196.87;1695408;83;21019;-71
2022/08/14 09:48:27;;;;;;;8.98;6.45;;;;;;;27.84;100.00;99187.88;1696956;83;21066;-73
2022/08/14 09:50:55;;;;;;;10.15;6.55;;;;;;;27.97;100.00;99195.46;1694734;83;20969;-72
2022/08/14 09:53:44;;;;;;;10.45;6.08;;;;;;;28.03;100.00;99188.84;1683540;83;21480;-72
2022/08/14 09:56:10;;;;;;;10.10;6.20;;;;;;;28.08;100.00;99187.09;1647799;85;21016;-74
2022/08/14 09:58:43;;;;;;;7.45;5.95;;;;;;;28.12;100.00;99192.88;1663487;84;21197;-73
2022/08/14 10:01:13;;;;;;;8.78;6.12;;;;;;;28.18;100.00;99197.46;1657435;85;21061;-75
2022/08/14 10:03:52;;;;;;;10.58;5.70;;;;;;;28.20;100.00;99189.45;1667240;84;21688;-74
2022/08/14 10:06:23;;;;;;;7.58;5.95;;;;;;;28.24;100.00;99188.84;1674846;84;20977;-75
2022/08/14 10:09:06;;;;;;;9.98;6.42;;;;;;;28.38;100.00;99179.61;1669575;84;21103;-74
2022/08/14 10:11:36;;;;;;;9.73;6.25;;;;;;;28.44;100.00;99174.62;1686003;84;21569;-72
2022/08/14 10:14:20;;;;;;;9.83;6.17;;;;;;;28.39;100.00;99185.42;1708571;82;21075;-74
2022/08/14 10:16:53;;;;;;;8.05;5.97;;;;;;;28.38;100.00;99182.41;1715836;82;21490;-74
2022/08/14 10:19:27;;;;;;;10.90;6.40;;;;;;;28.36;100.00;99184.23;1711519;82;21119;-74
2022/08/14 10:22:07;;;;;;;9.68;5.70;;;;;;;28.35;100.00;99190.22;1680628;84;21510;-70
2022/08/14 10:24:39;;;;;;;6.60;5.80;;;;;;;28.39;100.00;99192.41;1713581;82;21143;-72
2022/08/14 10:27:23;;;;;;;8.98;6.05;;;;;;;28.44;100.00;99196.22;1710611;82;21556;-74
2022/08/14 10:29:53;;;;;;;10.38;6.35;;;;;;;28.49;100.00;99198.58;1720983;82;21071;-74
2022/08/14 10:32:21;;;;;;;8.38;5.33;;;;;;;28.49;100.00;99184.58;1713534;82;20996;-75
2022/08/14 10:34:48;;;;;;;9.08;5.60;;;;;;;28.48;100.00;99189.41;1716209;82;21131;-73
2022/08/14 10:37:16;;;;;;;7.60;5.62;;;;;;;28.46;100.00;99192.39;1680433;84;21003;-71
2022/08/14 10:39:57;;;;;;;8.28;5.55;;;;;;;28.44;100.00;99192.81;1714710;82;21046;-75
2022/08/14 10:42:27;;;;;;;9.30;5.83;;;;;;;28.44;100.00;99185.81;1714176;82;21446;-72
2022/08/14 10:52:13;;;;;;;;;;;;;;;28.75;100.00;99198.73;1855225;76;22956;-74
2022/08/14 10:54:44;;;;;;;7.62;5.60;;;;;;;28.75;100.00;99191.73;1853102;77;20721;-72
2022/08/14 10:57:23;;;;;;;11.97;5.47;;;;;;;28.72;100.00;99189.15;1844081;77;20997;-73
2022/08/14 10:59:58;;;;;;;9.45;5.40;;;;;;;28.75;100.00;99194.53;1831445;77;21467;-72
2022/08/14 11:02:35;;;;;;;10.15;5.22;;;;;;;28.70;100.00;99192.94;1836785;77;21485;-72
2022/08/14 11:05:17;;;;;;;10.75;5.30;;;;;;;28.62;100.00;99194.97;1849804;77;20990;-71
2022/08/14 11:07:59;;;;;;;7.78;5.20;;;;;;;28.51;100.00;99189.20;1847936;77;20978;-72
2022/08/14 11:10:56;;;;;;;11.73;5.50;;;;;;;28.45;100.00;99188.02;1841074;77;21062;-73
2022/08/14 11:13:26;;;;;;;10.40;5.90;;;;;;;28.40;100.00;99196.82;1841369;77;20967;-72
2022/08/14 11:15:55;;;;;;;7.58;5.37;;;;;;;28.35;100.00;99183.22;1843844;77;21026;-72
2022/08/14 11:18:21;;;;;;;9.80;5.35;;;;;;;28.36;100.00;99192.63;1842125;77;21018;-71
2022/08/14 11:20:54;;;;;;;11.73;5.42;;;;;;;28.42;100.00;99195.80;1844391;77;21026;-72
2022/08/14 11:23:30;;;;;;;7.20;5.45;;;;;;;28.49;100.00;99183.19;1830654;77;20988;-72
2022/08/14 11:25:59;;;;;;;12.63;5.70;;;;;;;28.52;100.00;99183.80;1838819;77;21097;-71
2022/08/14 11:28:29;;;;;;;7.25;5.60;;;;;;;28.53;100.00;99172.77;1842123;77;21571;-71
2022/08/14 11:30:55;;;;;;;9.95;5.50;;;;;;;28.51;100.00;99173.80;1835684;77;21082;-71
2022/08/14 11:33:28;;;;;;;7.05;5.33;;;;;;;28.43;100.00;99179.21;1814819;77;21067;-72
2022/08/14 11:35:53;;;;;;;7.50;5.12;;;;;;;28.40;100.00;99175.83;1810420;78;21066;-72
2022/08/14 11:38:20;;;;;;;10.30;5.53;;;;;;;28.44;100.00;99177.42;1841263;77;21041;-71
2022/08/14 11:40:48;;;;;;;12.30;4.92;;;;;;;28.48;100.00;99174.61;1849844;77;21026;-70
2022/08/14 11:43:15;;;;;;;9.63;4.90;;;;;;;28.52;100.00;99178.20;1830740;77;21679;-70
2022/08/14 11:45:47;;;;;;;8.83;5.15;;;;;;;28.60;100.00;99176.95;1833523;77;21050;-69
2022/08/14 11:48:20;;;;;;;9.93;5.10;;;;;;;28.69;100.00;99168.96;1830373;77;20975;-70
2022/08/14 11:50:47;;;;;;;8.43;5.17;;;;;;;28.69;100.00;99165.36;1839791;77;21509;-70
2022/08/14 11:53:30;;;;;;;10.53;5.47;;;;;;;28.70;100.00;99173.34;1839496;77;21038;-70
2022/08/14 11:56:02;;;;;;;9.45;5.05;;;;;;;28.73;100.00;99182.95;1819572;77;21042;-69